NCAR-RAP Real-Time Weather Data

Output produced by METARs form (12 May 2021  12:12 UTC)
found at http://weather.rap.ucar.edu/surface/
 
KMOD 121153Z AUTO 00000KT 10SM CLR 14/07 A2988 RMK AO2 SLP118 T01440067 10222 20144 53005
KMOD 121053Z AUTO 20003KT 10SM CLR 15/08 A2987 RMK AO2 SLP115 T01500083
KMOD 120953Z AUTO 01004KT 10SM CLR 18/04 A2986 RMK AO2 SLP111 T01830044
KMOD 120853Z AUTO 36003KT 10SM CLR 19/05 A2987 RMK AO2 SLP113 T01940050 51004
KMOD 120753Z AUTO 01006KT 10SM CLR 20/06 A2987 RMK AO2 SLP113 T02000056 403330117
KMOD 120653Z AUTO 01006KT 10SM CLR 21/07 A2986 RMK AO2 SLP111 T02060072
KMOD 120553Z AUTO 34006KT 10SM CLR 22/07 A2986 RMK AO2 SLP109 T02220067 10333 20222 51015
KMOD 120453Z AUTO 31008KT 10SM CLR 26/M01 A2984 RMK AO2 SLP104 T02561006
KMOD 120353Z 32009KT 10SM CLR 27/01 A2983 RMK AO2 SLP100 T02670011
KMOD 120253Z 34005KT 10SM CLR 30/00 A2981 RMK AO2 SLP093 T03000000 55000
KMOD 120153Z 36007KT 10SM CLR 32/M01 A2981 RMK AO2 SLP092 T03171011
KMOD 120053Z 36010KT 10SM CLR 33/M03 A2981 RMK AO2 SLP092 T03281033
KMOD 112353Z 32009G14KT 10SM CLR 33/M02 A2981 RMK AO2 SLP093 T03281017 10333 20256 56013